createdAt,value
2018-03-08T00:02:28.436Z,65.45
2018-03-08T00:04:58.421Z,65.37
2018-03-08T00:07:28.356Z,65.15
2018-03-08T00:09:59.020Z,65.02
2018-03-08T00:12:30.213Z,65.03
2018-03-08T00:15:02.770Z,64.31
2018-03-08T00:17:32.700Z,64.37
2018-03-08T00:20:05.072Z,64.73
2018-03-08T00:22:34.932Z,65.46
2018-03-08T00:25:06.166Z,65.85
2018-03-08T00:27:35.826Z,65.97
2018-03-08T00:30:06.563Z,66.06
2018-03-08T00:32:36.871Z,66.15
2018-03-08T00:35:07.110Z,66.37
2018-03-08T00:37:37.381Z,65.80
2018-03-08T00:40:07.566Z,66.00
2018-03-08T00:42:37.496Z,66.07
2018-03-08T00:45:07.907Z,65.73
2018-03-08T00:47:37.360Z,65.27
2018-03-08T00:50:08.266Z,65.40
2018-03-08T00:52:37.856Z,64.97
2018-03-08T00:55:08.260Z,65.33
2018-03-08T00:57:38.545Z,65.14
2018-03-08T01:00:08.686Z,64.90
2018-03-08T01:02:38.146Z,65.67
2018-03-08T01:05:08.448Z,65.99
2018-03-08T01:07:38.019Z,66.14
2018-03-08T01:10:08.260Z,66.83
2018-03-08T01:12:38.193Z,66.68
2018-03-08T01:15:08.686Z,66.98
2018-03-08T01:17:38.709Z,67.00
2018-03-08T01:20:09.040Z,67.14
2018-03-08T01:22:39.085Z,66.63
2018-03-08T01:25:09.912Z,66.61
2018-03-08T01:27:39.960Z,66.81
2018-03-08T01:30:10.309Z,66.79
2018-03-08T01:32:40.789Z,66.91
2018-03-08T01:35:10.397Z,66.40
2018-03-08T01:37:40.280Z,66.01
2018-03-08T01:40:10.902Z,66.48
2018-03-08T01:42:40.810Z,67.67
2018-03-08T01:45:13.789Z,68.53
2018-03-08T01:47:43.528Z,68.41
2018-03-08T01:50:13.437Z,68.04
2018-03-08T01:52:43.474Z,67.81
2018-03-08T01:55:14.921Z,67.96
2018-03-08T01:57:45.200Z,68.01
2018-03-08T02:00:15.660Z,67.62
2018-03-08T02:02:45.708Z,67.28
2018-03-08T02:05:17.430Z,66.86
2018-03-08T02:07:49.607Z,66.51
2018-03-08T02:10:20.297Z,66.73
2018-03-08T02:13:09.874Z,67.06
2018-03-08T02:15:41.265Z,66.86
2018-03-08T02:18:12.473Z,66.45
2018-03-08T02:20:43.858Z,65.97
2018-03-08T02:23:14.315Z,66.12
2018-03-08T02:25:44.740Z,66.81
2018-03-08T02:28:15.171Z,65.95
2018-03-08T02:30:45.400Z,66.21
2018-03-08T02:33:15.286Z,67.31
2018-03-08T02:35:45.403Z,67.23
2018-03-08T02:38:15.454Z,66.49
2018-03-08T02:40:45.075Z,66.73
2018-03-08T02:43:15.654Z,65.89
2018-03-08T02:45:45.690Z,65.72
2018-03-08T02:48:16.205Z,65.02
2018-03-08T02:50:46.167Z,64.66
2018-03-08T02:53:15.859Z,64.77
2018-03-08T02:55:46.218Z,64.72
2018-03-08T02:58:16.297Z,64.23
2018-03-08T03:00:50.344Z,64.95
2018-03-08T03:03:21.150Z,64.75
2018-03-08T03:05:52.122Z,64.35
2018-03-08T03:08:23.507Z,64.66
2018-03-08T03:10:54.348Z,63.45
2018-03-08T03:13:24.731Z,63.21
2018-03-08T03:15:55.696Z,62.81
2018-03-08T03:18:26.435Z,63.04
2018-03-08T03:20:56.342Z,65.10
2018-03-08T03:23:27.116Z,65.43
2018-03-08T03:25:56.944Z,67.07
2018-03-08T03:28:27.249Z,67.61
2018-03-08T03:30:57.498Z,67.44
2018-03-08T03:33:27.543Z,67.71
2018-03-08T03:35:57.843Z,68.28
2018-03-08T03:38:28.274Z,69.08
2018-03-08T03:40:58.654Z,68.89
2018-03-08T03:43:29.486Z,69.47
2018-03-08T03:45:59.720Z,69.44
2018-03-08T03:48:29.593Z,70.81
2018-03-08T03:51:05.418Z,70.66
2018-03-08T03:53:36.268Z,70.87
2018-03-08T03:56:09.057Z,71.34
2018-03-08T03:58:39.403Z,71.30
2018-03-08T04:01:10.170Z,71.47
2018-03-08T04:03:40.035Z,71.63
2018-03-08T04:06:10.165Z,72.14
2018-03-08T04:08:40.154Z,71.61
2018-03-08T04:11:10.373Z,72.09
2018-03-08T04:13:40.531Z,72.31
2018-03-08T04:16:11.247Z,71.80
2018-03-08T04:18:41.191Z,72.20
2018-03-08T04:21:12.145Z,71.99
2018-03-08T04:23:42.486Z,70.78
2018-03-08T04:26:13.142Z,70.44
2018-03-08T04:28:42.910Z,70.58
2018-03-08T04:31:12.604Z,70.39
2018-03-08T04:33:42.701Z,70.87
2018-03-08T04:36:12.859Z,70.35
2018-03-08T04:38:42.850Z,70.16
2018-03-08T04:41:12.866Z,69.92
2018-03-08T04:43:43.008Z,70.17
2018-03-08T04:46:12.914Z,69.56
2018-03-08T04:48:43.070Z,69.93
2018-03-08T04:51:14.222Z,69.75
2018-03-08T04:53:45.339Z,69.76
2018-03-08T04:56:18.306Z,69.23
2018-03-08T04:58:50.032Z,68.94
2018-03-08T05:01:22.058Z,68.02
2018-03-08T05:03:55.033Z,68.33
2018-03-08T05:06:25.711Z,67.91
2018-03-08T05:09:06.320Z,68.02
2018-03-08T05:11:40.093Z,68.34
2018-03-08T05:14:10.707Z,67.95
2018-03-08T05:16:40.338Z,67.71
2018-03-08T05:19:10.885Z,67.56
2018-03-08T05:21:40.902Z,67.19
2018-03-08T05:24:11.389Z,66.99
2018-03-08T05:26:41.852Z,67.67
2018-03-08T05:29:12.160Z,67.43
2018-03-08T05:31:41.832Z,67.11
2018-03-08T05:34:11.981Z,66.25
2018-03-08T05:36:42.019Z,66.73
2018-03-08T05:39:12.165Z,66.34
2018-03-08T05:41:42.345Z,66.72
2018-03-08T05:44:12.918Z,66.95
2018-03-08T05:46:43.042Z,66.64
2018-03-08T05:49:13.480Z,66.50
2018-03-08T05:51:43.362Z,66.62
2018-03-08T05:55:15.619Z,66.07
2018-03-08T05:57:45.505Z,65.18
2018-03-08T06:00:16.754Z,65.56
2018-03-08T06:02:46.305Z,65.38
2018-03-08T06:05:16.307Z,65.67
2018-03-08T06:07:46.649Z,65.53
2018-03-08T06:10:16.947Z,65.56
2018-03-08T06:12:50.872Z,65.80
2018-03-08T06:15:21.517Z,65.52
2018-03-08T06:17:52.370Z,65.83
2018-03-08T06:20:24.177Z,65.73
2018-03-08T06:22:53.896Z,65.61
2018-03-08T06:25:25.052Z,65.48
2018-03-08T06:27:54.611Z,65.82
2018-03-08T06:30:24.299Z,65.08
2018-03-08T06:32:54.788Z,65.02
2018-03-08T06:35:24.229Z,64.43
2018-03-08T06:37:54.669Z,64.73
2018-03-08T06:40:24.433Z,64.53
2018-03-08T06:42:55.452Z,64.93
2018-03-08T06:45:25.813Z,64.83
2018-03-08T06:47:56.564Z,64.83
2018-03-08T06:50:29.164Z,64.87
2018-03-08T06:52:59.860Z,65.23
2018-03-08T06:55:29.759Z,64.92
2018-03-08T06:57:59.861Z,64.71
2018-03-08T07:00:29.829Z,64.74
2018-03-08T07:02:59.434Z,64.97
2018-03-08T07:05:28.995Z,64.51
2018-03-08T07:07:58.807Z,64.12
2018-03-08T07:10:30.284Z,63.43
2018-03-08T07:13:01.903Z,62.58
2018-03-08T07:15:32.417Z,61.86
2018-03-08T07:18:05.262Z,60.44
2018-03-08T07:20:35.768Z,59.73
2018-03-08T07:23:06.888Z,59.66
2018-03-08T07:25:36.751Z,59.01
2018-03-08T07:28:07.133Z,58.08
2018-03-08T07:30:36.839Z,57.82
2018-03-08T07:33:06.678Z,57.90
2018-03-08T07:35:37.194Z,57.72
2018-03-08T07:38:08.328Z,56.95
2018-03-08T07:40:38.541Z,55.79
2018-03-08T07:43:09.066Z,55.45
2018-03-08T07:45:38.680Z,56.13
2018-03-08T07:48:08.485Z,56.06
2018-03-08T07:50:38.215Z,56.15
2018-03-08T07:53:07.819Z,56.44
2018-03-08T07:55:39.073Z,57.16
2018-03-08T07:58:08.846Z,56.68
2018-03-08T08:00:38.338Z,55.20
2018-03-08T08:03:08.322Z,54.12
2018-03-08T08:05:57.324Z,54.94
2018-03-08T08:08:36.661Z,56.39
2018-03-08T08:11:06.747Z,57.31
2018-03-08T08:13:36.513Z,57.90
2018-03-08T08:16:06.175Z,57.54
2018-03-08T08:18:36.798Z,56.30
2018-03-08T08:21:06.290Z,56.54
2018-03-08T08:23:36.071Z,56.72
2018-03-08T08:26:07.800Z,56.56
2018-03-08T08:28:37.736Z,57.33
2018-03-08T08:31:07.656Z,57.28
2018-03-08T08:33:37.158Z,57.11
2018-03-08T08:36:06.745Z,57.41
2018-03-08T08:38:36.739Z,57.75
2018-03-08T08:41:06.371Z,57.29
2018-03-08T08:43:35.875Z,56.17
2018-03-08T08:46:07.472Z,55.57
2018-03-08T08:48:36.933Z,56.30
2018-03-08T08:51:06.644Z,56.35
2018-03-08T08:53:36.600Z,56.24
2018-03-08T08:56:07.534Z,55.75
2018-03-08T08:58:37.262Z,56.01
2018-03-08T09:01:07.660Z,56.74
2018-03-08T09:03:37.440Z,56.75
2018-03-08T09:06:07.591Z,56.43
2018-03-08T09:08:38.193Z,55.76
2018-03-08T09:11:07.851Z,55.65
2018-03-08T09:13:37.289Z,55.83
2018-03-08T09:16:07.421Z,55.46
2018-03-08T09:18:37.729Z,54.96
2018-03-08T09:21:07.805Z,54.30
2018-03-08T09:23:37.670Z,54.28
2018-03-08T09:26:07.309Z,54.37
2018-03-08T09:28:37.833Z,54.76
2018-03-08T09:31:08.134Z,54.43
2018-03-08T09:33:37.699Z,53.86
2018-03-08T09:36:07.118Z,53.39
2018-03-08T09:38:37.459Z,52.41
2018-03-08T09:41:07.199Z,53.10
2018-03-08T09:43:36.780Z,53.35
2018-03-08T09:46:08.858Z,52.40
2018-03-08T09:48:38.306Z,53.08
2018-03-08T09:51:07.770Z,52.10
2018-03-08T09:53:38.079Z,52.57
2018-03-08T09:56:08.441Z,52.30
2018-03-08T09:58:38.050Z,51.84
2018-03-08T10:01:07.960Z,51.46
2018-03-08T10:03:37.543Z,50.75
2018-03-08T10:06:07.494Z,50.62
2018-03-08T10:08:37.208Z,49.69
2018-03-08T10:11:06.726Z,50.12
2018-03-08T10:13:37.188Z,49.59
2018-03-08T10:16:06.972Z,49.29
2018-03-08T10:18:36.738Z,48.97
2018-03-08T10:21:06.523Z,48.50
2018-03-08T10:23:36.401Z,48.57
2018-03-08T10:26:06.512Z,48.85
2018-03-08T10:28:37.474Z,47.94
2018-03-08T10:31:07.745Z,45.68
2018-03-08T10:33:37.335Z,45.36
2018-03-08T10:36:08.438Z,46.08
2018-03-08T10:38:39.932Z,46.60
2018-03-08T10:41:09.721Z,47.07
2018-03-08T10:43:39.258Z,47.48
2018-03-08T10:46:09.724Z,47.20
2018-03-08T10:48:39.134Z,46.70
2018-03-08T10:51:08.992Z,45.71
2018-03-08T10:53:38.755Z,45.82
2018-03-08T10:56:08.760Z,46.88
2018-03-08T10:58:38.224Z,47.29
2018-03-08T11:01:08.395Z,47.59
2018-03-08T11:03:44.056Z,48.53
2018-03-08T11:06:18.468Z,48.87
2018-03-08T11:08:48.812Z,48.29
2018-03-08T11:11:18.810Z,49.10
2018-03-08T11:13:48.737Z,48.50
2018-03-08T11:16:18.938Z,48.77
2018-03-08T11:18:49.659Z,47.61
2018-03-08T11:21:21.343Z,46.63
2018-03-08T11:23:51.802Z,45.96
2018-03-08T11:29:11.633Z,47.26
2018-03-08T11:31:41.700Z,47.87
2018-03-08T11:34:11.593Z,48.36
2018-03-08T11:36:41.066Z,47.67
2018-03-08T11:39:11.950Z,47.73
2018-03-08T11:41:41.739Z,47.28
2018-03-08T11:44:11.410Z,48.31
2018-03-08T11:46:41.189Z,47.99
2018-03-08T11:49:10.899Z,47.37
2018-03-08T11:51:40.527Z,47.83
2018-03-08T11:54:14.038Z,47.76
2018-03-08T11:56:43.790Z,48.28
2018-03-08T11:59:13.266Z,48.35
2018-03-08T12:01:43.103Z,46.95
2018-03-08T12:04:15.874Z,44.79
2018-03-08T12:06:46.094Z,44.79
2018-03-08T12:09:19.706Z,45.26
2018-03-08T12:11:50.067Z,44.90
2018-03-08T12:14:21.806Z,44.34
2018-03-08T12:16:51.817Z,42.40
2018-03-08T12:19:21.641Z,42.66
2018-03-08T12:21:52.493Z,42.52
2018-03-08T12:24:24.143Z,43.53
2018-03-08T12:26:54.138Z,43.32
2018-03-08T12:29:23.802Z,42.91
2018-03-08T12:31:53.526Z,43.06
2018-03-08T12:34:23.128Z,43.19
2018-03-08T12:36:52.685Z,42.69
2018-03-08T12:39:22.532Z,42.54
2018-03-08T12:41:52.023Z,42.32
2018-03-08T12:44:21.702Z,43.10
2018-03-08T12:46:51.941Z,44.32
2018-03-08T12:49:21.651Z,44.95
2018-03-08T12:51:51.773Z,43.71
2018-03-08T12:54:21.603Z,43.19
2018-03-08T12:56:51.222Z,43.04
2018-03-08T12:59:21.213Z,43.25
2018-03-08T13:01:51.086Z,42.80
2018-03-08T13:04:21.006Z,41.56
2018-03-08T13:06:50.644Z,40.39
2018-03-08T13:09:20.283Z,39.26
2018-03-08T13:11:49.820Z,38.92
2018-03-08T13:14:20.759Z,38.68
2018-03-08T13:16:50.581Z,39.23
2018-03-08T13:19:20.295Z,39.63
2018-03-08T13:21:49.771Z,38.83
2018-03-08T13:24:19.357Z,38.63
2018-03-08T13:26:48.879Z,39.22
2018-03-08T13:29:18.902Z,40.29
2018-03-08T13:31:48.369Z,41.10
2018-03-08T13:34:18.205Z,41.52
2018-03-08T13:36:47.703Z,41.19
2018-03-08T13:39:17.139Z,40.98
2018-03-08T13:41:46.811Z,41.59
2018-03-08T13:44:16.286Z,41.15
2018-03-08T13:46:47.031Z,40.67
2018-03-08T13:49:26.225Z,40.75
2018-03-08T13:51:56.106Z,40.38
2018-03-08T13:54:26.318Z,40.84
2018-03-08T13:56:55.859Z,40.66
2018-03-08T13:59:25.473Z,41.65
2018-03-08T14:01:55.788Z,42.34
2018-03-08T14:04:25.297Z,41.83
2018-03-08T14:06:55.210Z,42.13
2018-03-08T14:09:25.155Z,42.54
2018-03-08T14:11:54.706Z,42.76
2018-03-08T14:14:24.625Z,42.61
2018-03-08T14:16:54.485Z,42.71
2018-03-08T14:19:24.328Z,42.43
2018-03-08T14:21:53.959Z,41.82
2018-03-08T14:24:23.663Z,40.99
2018-03-08T14:26:53.383Z,40.47
2018-03-08T14:29:23.315Z,38.96
2018-03-08T14:31:52.895Z,37.87
2018-03-08T14:34:22.411Z,37.36
2018-03-08T14:36:52.142Z,37.84
2018-03-08T14:39:21.678Z,38.31
2018-03-08T14:41:51.123Z,38.70
2018-03-08T14:44:21.503Z,38.43
2018-03-08T14:46:51.271Z,39.78
2018-03-08T14:49:21.528Z,40.87
2018-03-08T14:51:51.125Z,40.84
2018-03-08T14:54:21.226Z,40.72
2018-03-08T14:56:51.201Z,41.01
2018-03-08T14:59:21.812Z,40.08
2018-03-08T15:01:51.442Z,37.73
2018-03-08T15:04:22.037Z,38.40
2018-03-08T15:06:51.717Z,39.59
2018-03-08T15:09:21.807Z,40.53
2018-03-08T15:11:51.376Z,41.98
2018-03-08T15:14:21.466Z,43.08
2018-03-08T15:16:51.201Z,43.82
2018-03-08T15:19:20.866Z,45.08
2018-03-08T15:21:50.515Z,45.00
2018-03-08T15:24:20.384Z,45.54
